Time;durP1;ratioP1;P1;durP2;ratioP2;P2;SDS_P1;SDS_P2;PMS_P1;PMS_P2;Temp;Humidity;BMP_temperature;BMP_pressure;BME280_temperature;BME280_humidity;BME280_pressure;Samples;Min_cycle;Max_cycle;Signal;HPM_P1;HPM_P2
2023/07/23 00:00:51;;;;;;;11.50;8.27;;;;;;;;;;5009565;28;20198;-67
2023/07/23 00:03:16;;;;;;;13.30;8.43;;;;;;;;;;5010559;28;20210;-67
2023/07/23 00:05:44;;;;;;;14.05;8.63;;;;;;;;;;5010218;28;20528;-68
2023/07/23 00:08:10;;;;;;;13.10;8.02;;;;;;;;;;4994420;28;20218;-68
2023/07/23 00:10:35;;;;;;;15.05;8.85;;;;;;;;;;5012284;28;20289;-68
2023/07/23 00:13:00;;;;;;;12.35;8.70;;;;;;;;;;5010537;28;20231;-68
2023/07/23 00:15:26;;;;;;;12.90;8.35;;;;;;;;;;5011060;28;21395;-68
2023/07/23 00:17:51;;;;;;;15.00;8.40;;;;;;;;;;5010731;28;20607;-68
2023/07/23 00:20:17;;;;;;;15.07;8.30;;;;;;;;;;5011169;28;20213;-68
2023/07/23 00:22:42;;;;;;;13.80;8.55;;;;;;;;;;5010471;28;20725;-67
2023/07/23 00:25:08;;;;;;;13.88;8.70;;;;;;;;;;5009940;28;20190;-68
2023/07/23 00:27:34;;;;;;;13.70;7.70;;;;;;;;;;5007758;28;20654;-67
2023/07/23 00:30:00;;;;;;;12.70;8.40;;;;;;;;;;5010644;28;20248;-66
2023/07/23 00:32:25;;;;;;;13.07;9.00;;;;;;;;;;5009310;28;20186;-66
2023/07/23 00:34:51;;;;;;;11.40;7.95;;;;;;;;;;5012319;28;20646;-67
2023/07/23 00:37:16;;;;;;;11.32;7.93;;;;;;;;;;5011240;28;20187;-67
2023/07/23 00:39:42;;;;;;;13.63;8.32;;;;;;;;;;5010948;28;20248;-67
2023/07/23 00:42:07;;;;;;;11.40;8.38;;;;;;;;;;5009992;28;20249;-67
2023/07/23 00:44:33;;;;;;;11.25;8.10;;;;;;;;;;5009717;28;20507;-67
2023/07/23 00:47:02;;;;;;;12.82;8.10;;;;;;;;;;5011230;28;20187;-67
2023/07/23 00:49:28;;;;;;;11.25;7.60;;;;;;;;;;5006757;28;20186;-68
2023/07/23 00:51:54;;;;;;;11.48;7.93;;;;;;;;;;5009241;28;20201;-67
2023/07/23 00:54:20;;;;;;;15.98;9.05;;;;;;;;;;5005905;28;20269;-67
2023/07/23 00:56:47;;;;;;;14.52;8.50;;;;;;;;;;5008775;28;20201;-68
2023/07/23 00:59:13;;;;;;;16.35;8.82;;;;;;;;;;5010374;28;20713;-68
2023/07/23 01:01:38;;;;;;;14.82;8.75;;;;;;;;;;5009717;28;20286;-68
2023/07/23 01:04:04;;;;;;;13.60;8.27;;;;;;;;;;5008512;28;20206;-67
2023/07/23 01:06:33;;;;;;;12.35;9.15;;;;;;;;;;5008779;28;20245;-67
2023/07/23 01:08:59;;;;;;;12.38;8.00;;;;;;;;;;5008910;28;20194;-67
2023/07/23 01:11:26;;;;;;;13.88;8.52;;;;;;;;;;5010075;28;20324;-68
2023/07/23 01:13:52;;;;;;;15.43;8.90;;;;;;;;;;5009723;28;20222;-68
2023/07/23 01:16:19;;;;;;;14.30;7.97;;;;;;;;;;5007926;28;20557;-67
2023/07/23 01:18:44;;;;;;;12.05;8.02;;;;;;;;;;5010202;28;20214;-67
2023/07/23 01:21:10;;;;;;;13.52;8.45;;;;;;;;;;5009810;28;20198;-67
2023/07/23 01:23:36;;;;;;;14.55;9.27;;;;;;;;;;4991783;28;20187;-68
2023/07/23 01:26:07;;;;;;;14.63;8.35;;;;;;;;;;4990274;28;20194;-68
2023/07/23 01:28:32;;;;;;;14.15;8.90;;;;;;;;;;5009189;28;20226;-69
2023/07/23 01:30:58;;;;;;;14.85;9.15;;;;;;;;;;5011058;28;20215;-67
2023/07/23 01:33:23;;;;;;;13.95;9.10;;;;;;;;;;5007164;28;20206;-67
2023/07/23 01:35:52;;;;;;;12.63;9.50;;;;;;;;;;5023433;28;20225;-67
2023/07/23 01:38:17;;;;;;;14.20;8.93;;;;;;;;;;5010907;28;20218;-68
2023/07/23 01:40:43;;;;;;;12.93;9.70;;;;;;;;;;5012302;28;20218;-68
2023/07/23 01:43:09;;;;;;;17.20;10.45;;;;;;;;;;5003595;28;20353;-67
2023/07/23 01:45:34;;;;;;;13.60;10.15;;;;;;;;;;5013079;28;20186;-68
2023/07/23 01:47:59;;;;;;;15.23;9.77;;;;;;;;;;4993663;28;20282;-68
2023/07/23 01:50:25;;;;;;;17.90;9.88;;;;;;;;;;5015681;28;20190;-67
2023/07/23 01:52:50;;;;;;;14.27;9.75;;;;;;;;;;4995810;28;20271;-68
2023/07/23 01:55:15;;;;;;;15.90;11.00;;;;;;;;;;5005205;28;20260;-66
2023/07/23 01:57:41;;;;;;;14.40;8.80;;;;;;;;;;5000313;28;20188;-68
2023/07/23 02:00:08;;;;;;;16.88;9.70;;;;;;;;;;5003967;28;20197;-66
2023/07/23 02:02:34;;;;;;;17.73;9.48;;;;;;;;;;4981286;28;20282;-66
2023/07/23 02:04:59;;;;;;;14.77;9.38;;;;;;;;;;5001592;28;20526;-66
2023/07/23 02:07:25;;;;;;;13.98;9.82;;;;;;;;;;5001954;28;20285;-66
2023/07/23 02:09:50;;;;;;;15.75;9.65;;;;;;;;;;5012306;28;20229;-67
2023/07/23 02:12:16;;;;;;;11.73;8.60;;;;;;;;;;5010885;28;20228;-68
2023/07/23 02:14:41;;;;;;;16.40;9.00;;;;;;;;;;5016333;28;20214;-67
2023/07/23 02:17:07;;;;;;;14.55;9.57;;;;;;;;;;5004749;28;20691;-68
2023/07/23 02:19:32;;;;;;;13.93;9.20;;;;;;;;;;5011858;28;20199;-67
2023/07/23 02:21:57;;;;;;;12.27;8.25;;;;;;;;;;5011589;28;21120;-68
2023/07/23 02:24:23;;;;;;;13.18;8.48;;;;;;;;;;5010011;28;20219;-68
2023/07/23 02:26:48;;;;;;;17.27;8.55;;;;;;;;;;4999423;28;20290;-68
2023/07/23 02:29:13;;;;;;;14.90;8.63;;;;;;;;;;5002244;28;20203;-68
2023/07/23 02:31:39;;;;;;;13.30;9.45;;;;;;;;;;5018309;28;20277;-68
2023/07/23 02:34:04;;;;;;;12.00;8.30;;;;;;;;;;5005197;28;20203;-68
2023/07/23 02:36:30;;;;;;;12.63;8.57;;;;;;;;;;4986271;28;20196;-68
2023/07/23 02:38:56;;;;;;;11.07;8.45;;;;;;;;;;5004544;28;20205;-67
2023/07/23 02:41:22;;;;;;;10.68;8.20;;;;;;;;;;4982931;28;20191;-68
2023/07/23 02:43:48;;;;;;;11.00;8.55;;;;;;;;;;5005201;28;20186;-67
2023/07/23 02:46:13;;;;;;;16.77;9.23;;;;;;;;;;5006610;28;20190;-67
2023/07/23 02:48:39;;;;;;;14.50;8.80;;;;;;;;;;5006674;28;20195;-68
2023/07/23 02:51:04;;;;;;;13.30;9.55;;;;;;;;;;5010103;28;20697;-67
2023/07/23 02:53:29;;;;;;;15.25;9.82;;;;;;;;;;4993421;28;20219;-68
2023/07/23 02:55:55;;;;;;;16.40;10.07;;;;;;;;;;5010871;28;20243;-69
2023/07/23 02:58:20;;;;;;;15.13;9.35;;;;;;;;;;5006345;28;20414;-68
2023/07/23 03:00:46;;;;;;;14.38;8.98;;;;;;;;;;5007005;28;20187;-68
2023/07/23 03:03:11;;;;;;;16.17;8.90;;;;;;;;;;5010489;28;20190;-67
2023/07/23 03:05:37;;;;;;;14.98;9.98;;;;;;;;;;5005931;28;20194;-67
2023/07/23 03:08:03;;;;;;;15.98;10.95;;;;;;;;;;5009916;28;20193;-68
2023/07/23 03:10:30;;;;;;;14.85;9.82;;;;;;;;;;5008140;28;20605;-68
2023/07/23 03:12:55;;;;;;;14.30;10.35;;;;;;;;;;5005553;28;20194;-68
2023/07/23 03:15:21;;;;;;;17.88;10.13;;;;;;;;;;5011618;28;20202;-68
2023/07/23 03:17:47;;;;;;;14.38;10.38;;;;;;;;;;4997287;28;20203;-68
2023/07/23 03:20:13;;;;;;;12.93;10.00;;;;;;;;;;4997924;28;20194;-68
2023/07/23 03:22:41;;;;;;;18.38;10.13;;;;;;;;;;5005769;28;20187;-68
2023/07/23 03:25:07;;;;;;;14.15;9.57;;;;;;;;;;5020578;28;20194;-68
2023/07/23 03:27:32;;;;;;;17.75;10.88;;;;;;;;;;5014792;28;20304;-68
2023/07/23 03:29:57;;;;;;;12.55;10.07;;;;;;;;;;5022274;28;20194;-68
2023/07/23 03:32:23;;;;;;;14.45;9.98;;;;;;;;;;5019327;28;20278;-68
2023/07/23 03:34:49;;;;;;;15.98;10.68;;;;;;;;;;5008884;28;20202;-68
2023/07/23 03:37:14;;;;;;;17.38;10.30;;;;;;;;;;5013843;28;20225;-68
2023/07/23 03:39:39;;;;;;;13.52;9.82;;;;;;;;;;5010601;28;20187;-68
2023/07/23 03:42:06;;;;;;;15.60;10.23;;;;;;;;;;5007872;28;20276;-68
2023/07/23 03:44:32;;;;;;;15.98;9.82;;;;;;;;;;5006116;28;20241;-68
2023/07/23 03:47:19;;;;;;;13.27;9.40;;;;;;;;;;5009090;28;20194;-68
2023/07/23 03:49:45;;;;;;;17.25;9.63;;;;;;;;;;5005672;28;20233;-68
2023/07/23 03:52:11;;;;;;;18.00;9.77;;;;;;;;;;5006880;28;20699;-68
2023/07/23 03:54:37;;;;;;;16.67;9.40;;;;;;;;;;5023178;28;20246;-67
2023/07/23 03:57:02;;;;;;;13.57;10.07;;;;;;;;;;5009628;28;20191;-68
2023/07/23 03:59:48;;;;;;;13.80;8.77;;;;;;;;;;5004820;28;20266;-68
2023/07/23 04:02:13;;;;;;;12.77;9.25;;;;;;;;;;5008285;28;20210;-68
2023/07/23 04:04:40;;;;;;;15.85;8.55;;;;;;;;;;5005431;28;20191;-68
2023/07/23 04:07:06;;;;;;;13.52;9.27;;;;;;;;;;5009072;28;20342;-68
2023/07/23 04:09:32;;;;;;;16.98;9.57;;;;;;;;;;4993712;28;20265;-69
2023/07/23 04:11:57;;;;;;;13.48;9.07;;;;;;;;;;4979629;28;20695;-68
2023/07/23 04:14:24;;;;;;;15.30;9.07;;;;;;;;;;5002114;28;20370;-68
2023/07/23 04:16:50;;;;;;;14.10;9.05;;;;;;;;;;4998099;28;20298;-68
2023/07/23 04:19:16;;;;;;;19.27;9.40;;;;;;;;;;5000508;28;20608;-68
2023/07/23 04:21:41;;;;;;;15.43;8.73;;;;;;;;;;5010031;28;20203;-69
2023/07/23 04:24:07;;;;;;;13.15;9.23;;;;;;;;;;5005049;28;20257;-68
2023/07/23 04:26:32;;;;;;;12.73;8.80;;;;;;;;;;4994439;28;20183;-68
2023/07/23 04:28:58;;;;;;;13.70;8.05;;;;;;;;;;5012717;28;20178;-68
2023/07/23 04:31:24;;;;;;;13.02;8.60;;;;;;;;;;5009957;28;20182;-68
2023/07/23 04:33:49;;;;;;;12.77;8.50;;;;;;;;;;5005005;28;20215;-68
2023/07/23 04:36:15;;;;;;;13.95;8.52;;;;;;;;;;5008500;28;20210;-69
2023/07/23 04:38:42;;;;;;;11.52;8.00;;;;;;;;;;5002933;28;20187;-68
2023/07/23 04:41:09;;;;;;;13.15;8.63;;;;;;;;;;5013428;28;20273;-68
2023/07/23 04:43:35;;;;;;;13.90;9.45;;;;;;;;;;5012180;28;20202;-68
2023/07/23 04:46:01;;;;;;;11.95;8.75;;;;;;;;;;5010665;28;20249;-68
2023/07/23 04:48:26;;;;;;;9.70;7.82;;;;;;;;;;5010852;28;20191;-68
2023/07/23 04:51:00;;;;;;;13.52;9.20;;;;;;;;;;5007603;28;20281;-68
2023/07/23 04:53:26;;;;;;;17.55;9.40;;;;;;;;;;5004342;28;20621;-67
2023/07/23 04:55:54;;;;;;;10.52;8.18;;;;;;;;;;5011997;28;20305;-67
2023/07/23 04:58:20;;;;;;;16.25;9.02;;;;;;;;;;5009959;28;20554;-68
2023/07/23 05:00:45;;;;;;;11.70;8.25;;;;;;;;;;5005879;28;20222;-67
2023/07/23 05:03:11;;;;;;;14.52;8.70;;;;;;;;;;4995627;28;20202;-67
2023/07/23 05:05:48;;;;;;;15.75;8.35;;;;;;;;;;5002221;28;20195;-67
2023/07/23 05:08:14;;;;;;;16.73;8.68;;;;;;;;;;5017214;28;20186;-67
2023/07/23 05:10:39;;;;;;;13.38;8.95;;;;;;;;;;4998149;28;20198;-67
2023/07/23 05:13:05;;;;;;;15.23;8.30;;;;;;;;;;4999279;28;20582;-68
2023/07/23 05:15:31;;;;;;;12.95;8.43;;;;;;;;;;5009979;28;20241;-68
2023/07/23 05:17:56;;;;;;;14.38;8.10;;;;;;;;;;5012314;28;20202;-68
2023/07/23 05:20:21;;;;;;;13.98;8.75;;;;;;;;;;5011457;28;20198;-68
2023/07/23 05:22:47;;;;;;;14.55;8.23;;;;;;;;;;5004269;28;20721;-68
2023/07/23 05:25:12;;;;;;;16.30;8.05;;;;;;;;;;5011831;28;20269;-68
2023/07/23 05:27:38;;;;;;;14.60;8.02;;;;;;;;;;4994375;28;20679;-68
2023/07/23 05:30:04;;;;;;;11.52;7.80;;;;;;;;;;5004195;28;20266;-69
2023/07/23 05:32:32;;;;;;;12.55;7.80;;;;;;;;;;4985938;28;20184;-68
2023/07/23 05:34:58;;;;;;;12.23;7.95;;;;;;;;;;4977896;28;20683;-69
2023/07/23 05:37:24;;;;;;;12.55;7.95;;;;;;;;;;4983894;28;20194;-68
2023/07/23 05:39:53;;;;;;;17.42;8.27;;;;;;;;;;4991161;28;20196;-68
2023/07/23 05:42:18;;;;;;;15.00;8.40;;;;;;;;;;4984651;28;20192;-68
2023/07/23 05:44:44;;;;;;;12.98;8.15;;;;;;;;;;4989540;28;20188;-68
2023/07/23 05:47:09;;;;;;;12.05;7.93;;;;;;;;;;4989329;28;20547;-71
2023/07/23 05:49:34;;;;;;;11.70;6.43;;;;;;;;;;4992251;28;20210;-69
2023/07/23 05:52:00;;;;;;;14.27;7.78;;;;;;;;;;4991180;28;20199;-69
2023/07/23 05:54:26;;;;;;;14.05;7.85;;;;;;;;;;4990005;28;20287;-70
2023/07/23 05:56:51;;;;;;;14.38;8.20;;;;;;;;;;4991433;28;20275;-68
2023/07/23 05:59:17;;;;;;;14.98;7.10;;;;;;;;;;4986393;28;20188;-70
2023/07/23 06:01:42;;;;;;;12.73;8.05;;;;;;;;;;4989134;28;20722;-68
2023/07/23 06:04:08;;;;;;;12.80;7.22;;;;;;;;;;4982386;28;20576;-68
2023/07/23 06:06:34;;;;;;;14.00;7.68;;;;;;;;;;4991070;28;20244;-71
2023/07/23 06:08:59;;;;;;;15.00;8.05;;;;;;;;;;4994852;28;20263;-69
2023/07/23 06:11:24;;;;;;;13.95;7.47;;;;;;;;;;4990047;28;20214;-68
2023/07/23 06:13:50;;;;;;;12.32;7.20;;;;;;;;;;4979963;28;20254;-68
2023/07/23 06:16:15;;;;;;;10.63;6.50;;;;;;;;;;4978974;28;20207;-72
2023/07/23 06:18:40;;;;;;;11.93;7.43;;;;;;;;;;4986481;28;20373;-69
2023/07/23 06:21:06;;;;;;;14.63;7.68;;;;;;;;;;4989781;28;20214;-68
2023/07/23 06:23:33;;;;;;;11.27;6.13;;;;;;;;;;4979357;28;20242;-72
2023/07/23 06:25:58;;;;;;;8.82;6.65;;;;;;;;;;4994697;28;20218;-68
2023/07/23 06:28:24;;;;;;;10.52;6.35;;;;;;;;;;4989494;28;20263;-68
2023/07/23 06:30:50;;;;;;;11.57;6.97;;;;;;;;;;4995213;28;20191;-70
2023/07/23 06:33:16;;;;;;;9.65;5.97;;;;;;;;;;5005235;28;20214;-72
2023/07/23 06:35:44;;;;;;;9.25;6.47;;;;;;;;;;4985484;28;20199;-72
2023/07/23 06:38:10;;;;;;;11.38;5.80;;;;;;;;;;4984137;28;20615;-71
2023/07/23 06:40:35;;;;;;;11.52;6.47;;;;;;;;;;4974922;28;20259;-69
2023/07/23 06:43:01;;;;;;;10.80;6.15;;;;;;;;;;4983045;28;20257;-68
2023/07/23 06:45:27;;;;;;;13.38;6.80;;;;;;;;;;4990518;28;20230;-68
2023/07/23 06:47:52;;;;;;;10.90;5.68;;;;;;;;;;4984055;28;20203;-68
2023/07/23 06:50:18;;;;;;;11.65;6.10;;;;;;;;;;4987962;28;20190;-68
2023/07/23 06:52:44;;;;;;;12.40;6.53;;;;;;;;;;4988794;28;20210;-68
2023/07/23 06:55:09;;;;;;;11.68;7.38;;;;;;;;;;4988517;28;20577;-68
2023/07/23 06:57:34;;;;;;;10.60;6.53;;;;;;;;;;4985661;28;20650;-68
2023/07/23 07:00:00;;;;;;;9.93;6.40;;;;;;;;;;4985884;28;20206;-69
2023/07/23 07:02:25;;;;;;;9.20;6.03;;;;;;;;;;4987223;28;20206;-68
2023/07/23 07:04:51;;;;;;;8.52;6.43;;;;;;;;;;4983657;28;20184;-68
2023/07/23 07:07:16;;;;;;;10.20;5.95;;;;;;;;;;4993738;28;20215;-69
2023/07/23 07:09:42;;;;;;;8.25;6.28;;;;;;;;;;4983970;28;20317;-68
2023/07/23 07:12:07;;;;;;;12.20;6.15;;;;;;;;;;4985156;28;20187;-68
2023/07/23 07:14:33;;;;;;;11.80;5.88;;;;;;;;;;4993385;28;20218;-68
2023/07/23 07:16:58;;;;;;;10.45;6.20;;;;;;;;;;4974846;28;20258;-68
2023/07/23 07:19:23;;;;;;;9.55;6.28;;;;;;;;;;4999739;28;20317;-68
2023/07/23 07:21:50;;;;;;;9.55;5.72;;;;;;;;;;4983657;28;20183;-68
2023/07/23 07:24:16;;;;;;;14.38;6.32;;;;;;;;;;4987650;28;20689;-70
2023/07/23 07:26:42;;;;;;;13.38;6.05;;;;;;;;;;4986856;28;20223;-68
2023/07/23 07:29:07;;;;;;;10.80;6.65;;;;;;;;;;5004424;28;20301;-68
2023/07/23 07:31:33;;;;;;;9.80;5.82;;;;;;;;;;5009021;28;20198;-70
2023/07/23 07:33:58;;;;;;;10.98;7.03;;;;;;;;;;5004336;28;20210;-68
2023/07/23 07:36:24;;;;;;;8.32;5.80;;;;;;;;;;5001297;28;20242;-70
2023/07/23 07:38:49;;;;;;;11.52;6.22;;;;;;;;;;5007231;28;20713;-70
2023/07/23 07:41:15;;;;;;;10.15;6.45;;;;;;;;;;5011475;28;20197;-70
2023/07/23 07:43:40;;;;;;;13.38;6.38;;;;;;;;;;5007071;28;20916;-71
2023/07/23 07:46:08;;;;;;;12.63;6.75;;;;;;;;;;5002131;28;20252;-69
2023/07/23 07:48:35;;;;;;;12.00;6.32;;;;;;;;;;5000095;28;20200;-69
2023/07/23 07:51:03;;;;;;;8.68;6.20;;;;;;;;;;5002715;28;20191;-69
2023/07/23 07:53:29;;;;;;;8.70;5.45;;;;;;;;;;5001187;28;20298;-68
2023/07/23 07:55:55;;;;;;;10.00;6.68;;;;;;;;;;5003211;28;20520;-73
2023/07/23 07:58:27;;;;;;;9.80;6.22;;;;;;;;;;4995871;28;20274;-73
2023/07/23 08:00:57;;;;;;;7.85;5.90;;;;;;;;;;5000832;28;20676;-72
2023/07/23 08:03:25;;;;;;;11.18;5.85;;;;;;;;;;5005117;28;20621;-71
2023/07/23 08:05:51;;;;;;;9.68;6.50;;;;;;;;;;5009299;28;20499;-69
2023/07/23 08:08:21;;;;;;;10.68;5.88;;;;;;;;;;5002063;28;20286;-68
2023/07/23 08:10:47;;;;;;;9.63;6.57;;;;;;;;;;5010557;28;20190;-68
2023/07/23 08:13:14;;;;;;;11.93;6.45;;;;;;;;;;5008342;28;20661;-70
2023/07/23 08:15:40;;;;;;;8.10;6.35;;;;;;;;;;5008302;28;20183;-68
2023/07/23 08:18:05;;;;;;;7.82;5.57;;;;;;;;;;5009395;28;20207;-69
2023/07/23 08:20:33;;;;;;;8.60;6.30;;;;;;;;;;5009265;28;20194;-68
2023/07/23 08:22:59;;;;;;;9.85;6.47;;;;;;;;;;5006700;28;20761;-70
2023/07/23 08:25:24;;;;;;;10.85;6.88;;;;;;;;;;5000010;28;20270;-70
2023/07/23 08:27:51;;;;;;;10.43;6.82;;;;;;;;;;5009596;28;20258;-68
2023/07/23 08:30:17;;;;;;;10.18;6.95;;;;;;;;;;5003669;28;20191;-68
2023/07/23 08:32:45;;;;;;;9.13;6.55;;;;;;;;;;5000721;28;20205;-71
2023/07/23 08:35:11;;;;;;;10.90;6.53;;;;;;;;;;5003794;28;20777;-68
2023/07/23 08:37:37;;;;;;;9.43;6.43;;;;;;;;;;4995828;28;20202;-70
2023/07/23 08:40:03;;;;;;;12.77;7.00;;;;;;;;;;5004956;28;20187;-68
2023/07/23 08:42:34;;;;;;;10.60;7.00;;;;;;;;;;4997616;28;20266;-69
2023/07/23 08:45:22;;;;;;;9.85;6.93;;;;;;;;;;5008383;28;20179;-71
2023/07/23 08:47:48;;;;;;;11.07;7.00;;;;;;;;;;4978868;28;20221;-71
2023/07/23 08:50:14;;;;;;;8.75;7.00;;;;;;;;;;5006210;28;20649;-68
2023/07/23 08:52:43;;;;;;;10.02;6.60;;;;;;;;;;5012015;28;20194;-68
2023/07/23 08:55:10;;;;;;;9.00;6.10;;;;;;;;;;5011628;28;20413;-68
2023/07/23 08:57:36;;;;;;;7.50;6.05;;;;;;;;;;4999024;28;20554;-71
2023/07/23 09:00:02;;;;;;;8.88;5.78;;;;;;;;;;4315941;28;10000715;-68
2023/07/23 09:02:28;;;;;;;7.45;6.05;;;;;;;;;;5011961;28;20217;-71
2023/07/23 09:04:54;;;;;;;8.63;5.53;;;;;;;;;;5009016;28;20289;-67
2023/07/23 09:07:19;;;;;;;9.57;6.32;;;;;;;;;;5008324;28;20328;-68
2023/07/23 09:09:49;;;;;;;7.63;5.78;;;;;;;;;;4991819;28;20190;-72
2023/07/23 09:12:15;;;;;;;8.35;5.28;;;;;;;;;;5004391;28;20215;-70
2023/07/23 09:14:44;;;;;;;7.45;5.40;;;;;;;;;;5017035;28;20215;-69
2023/07/23 09:17:18;;;;;;;9.77;5.68;;;;;;;;;;5001006;28;20227;-67
2023/07/23 09:19:43;;;;;;;6.78;4.93;;;;;;;;;;5001126;28;20198;-69
2023/07/23 09:22:09;;;;;;;10.90;6.07;;;;;;;;;;4999721;28;20191;-67
2023/07/23 09:24:34;;;;;;;10.02;5.65;;;;;;;;;;5005571;28;20198;-71
2023/07/23 09:27:01;;;;;;;10.13;5.40;;;;;;;;;;4973527;28;20329;-71
2023/07/23 09:29:35;;;;;;;11.10;5.68;;;;;;;;;;4973726;28;20195;-68
2023/07/23 09:32:00;;;;;;;10.23;5.72;;;;;;;;;;4981862;28;20532;-72
2023/07/23 09:34:26;;;;;;;7.47;5.53;;;;;;;;;;4988179;28;20354;-69
2023/07/23 09:36:53;;;;;;;7.25;5.70;;;;;;;;;;4984598;28;20203;-68
2023/07/23 09:39:18;;;;;;;7.95;5.43;;;;;;;;;;4985625;28;20210;-67
2023/07/23 09:41:44;;;;;;;7.32;5.25;;;;;;;;;;4981728;28;20200;-71
2023/07/23 09:44:11;;;;;;;9.10;6.03;;;;;;;;;;4990213;28;20729;-69
2023/07/23 09:46:38;;;;;;;8.30;6.00;;;;;;;;;;4981505;28;20199;-68
2023/07/23 09:49:03;;;;;;;9.02;5.40;;;;;;;;;;4978927;28;20198;-72
2023/07/23 09:51:32;;;;;;;9.10;5.85;;;;;;;;;;4988800;28;20574;-68
2023/07/23 09:54:02;;;;;;;10.10;5.63;;;;;;;;;;4988392;28;20262;-68
2023/07/23 09:56:28;;;;;;;8.45;5.57;;;;;;;;;;4971021;28;20199;-70
2023/07/23 09:58:54;;;;;;;8.70;6.05;;;;;;;;;;4987357;28;20585;-68
2023/07/23 10:01:20;;;;;;;7.97;5.70;;;;;;;;;;4987468;28;20672;-68
2023/07/23 10:03:47;;;;;;;11.63;5.70;;;;;;;;;;4985643;28;20651;-68
2023/07/23 10:06:20;;;;;;;8.05;5.15;;;;;;;;;;4989039;28;20527;-68
2023/07/23 10:08:47;;;;;;;7.97;5.20;;;;;;;;;;4993862;28;20192;-72
2023/07/23 10:11:13;;;;;;;8.82;5.25;;;;;;;;;;4987007;28;20191;-69
2023/07/23 10:13:40;;;;;;;6.00;4.85;;;;;;;;;;4986672;28;20293;-71
2023/07/23 10:16:27;;;;;;;7.13;5.20;;;;;;;;;;4987527;28;20191;-72
2023/07/23 10:18:55;;;;;;;6.95;4.70;;;;;;;;;;4997905;28;20195;-72
2023/07/23 10:21:20;;;;;;;8.15;5.05;;;;;;;;;;4987095;28;20722;-69
2023/07/23 10:23:54;;;;;;;7.20;4.95;;;;;;;;;;4984474;28;20268;-72
2023/07/23 10:26:25;;;;;;;9.57;5.35;;;;;;;;;;4976752;28;20194;-69
2023/07/23 10:28:58;;;;;;;7.03;5.18;;;;;;;;;;5002634;28;20205;-70
2023/07/23 10:31:25;;;;;;;6.75;5.22;;;;;;;;;;5008549;28;20511;-72
2023/07/23 10:33:51;;;;;;;8.10;5.05;;;;;;;;;;5006349;28;20661;-70
2023/07/23 10:36:19;;;;;;;7.15;5.15;;;;;;;;;;5008587;28;20209;-72
2023/07/23 10:38:45;;;;;;;6.85;5.43;;;;;;;;;;5008255;28;20187;-71
2023/07/23 10:41:10;;;;;;;7.60;4.78;;;;;;;;;;4991136;28;20680;-70
2023/07/23 10:43:40;;;;;;;7.22;5.03;;;;;;;;;;5006404;28;20256;-69
2023/07/23 10:46:18;;;;;;;5.38;4.20;;;;;;;;;;5009991;28;20186;-73
2023/07/23 10:48:51;;;;;;;4.65;3.92;;;;;;;;;;5005491;28;20573;-73
2023/07/23 10:51:21;;;;;;;4.95;3.67;;;;;;;;;;5014206;28;20332;-70
2023/07/23 10:53:55;;;;;;;4.57;3.88;;;;;;;;;;5008531;28;20297;-69
2023/07/23 10:56:32;;;;;;;8.27;4.25;;;;;;;;;;4998782;28;20195;-69
2023/07/23 10:59:05;;;;;;;5.18;4.07;;;;;;;;;;5008650;28;20217;-71
2023/07/23 11:01:36;;;;;;;7.30;3.60;;;;;;;;;;5007442;28;20330;-69
2023/07/23 11:04:11;;;;;;;6.78;4.03;;;;;;;;;;4997839;28;20187;-70
2023/07/23 11:06:40;;;;;;;5.68;3.67;;;;;;;;;;5002205;28;20186;-68
2023/07/23 11:09:10;;;;;;;5.80;3.67;;;;;;;;;;4996834;28;20252;-71
2023/07/23 11:11:42;;;;;;;6.10;3.45;;;;;;;;;;4995646;28;20187;-68
2023/07/23 11:14:22;;;;;;;4.40;3.20;;;;;;;;;;5002147;28;20211;-69
2023/07/23 11:16:49;;;;;;;4.13;3.13;;;;;;;;;;5001207;28;20213;-73
2023/07/23 11:19:16;;;;;;;6.78;3.30;;;;;;;;;;4991065;28;20473;-70
2023/07/23 11:21:56;;;;;;;3.65;2.60;;;;;;;;;;5003445;28;20191;-70
2023/07/23 11:24:25;;;;;;;3.53;2.95;;;;;;;;;;5000141;28;20190;-69
2023/07/23 11:26:51;;;;;;;5.47;2.67;;;;;;;;;;5004933;28;20301;-73
2023/07/23 11:29:17;;;;;;;4.03;3.28;;;;;;;;;;5004733;28;20249;-68
2023/07/23 11:31:45;;;;;;;5.50;2.92;;;;;;;;;;5004133;28;20761;-72
2023/07/23 11:34:12;;;;;;;6.00;2.63;;;;;;;;;;5000472;28;20389;-73
2023/07/23 11:36:38;;;;;;;3.75;3.22;;;;;;;;;;5003253;28;20188;-69
2023/07/23 11:39:05;;;;;;;2.42;2.10;;;;;;;;;;5012397;28;20186;-69
2023/07/23 11:41:40;;;;;;;2.75;2.30;;;;;;;;;;4993683;28;20193;-72
2023/07/23 11:44:07;;;;;;;2.30;2.00;;;;;;;;;;5012206;28;20646;-69
2023/07/23 11:46:38;;;;;;;4.32;2.10;;;;;;;;;;5000450;28;20659;-73
2023/07/23 11:49:06;;;;;;;2.78;1.88;;;;;;;;;;5008051;28;20646;-73
2023/07/23 11:51:32;;;;;;;2.20;2.00;;;;;;;;;;4995870;28;20284;-72
2023/07/23 11:54:04;;;;;;;3.00;1.90;;;;;;;;;;4994892;28;20242;-72
2023/07/23 11:56:33;;;;;;;3.97;3.00;;;;;;;;;;4996157;28;20190;-69
2023/07/23 11:59:03;;;;;;;5.45;2.35;;;;;;;;;;5009023;28;20218;-70
2023/07/23 12:01:29;;;;;;;3.22;1.35;;;;;;;;;;4994062;28;20198;-72
2023/07/23 12:03:57;;;;;;;1.50;1.40;;;;;;;;;;4991475;28;20183;-70
2023/07/23 12:06:23;;;;;;;1.85;1.63;;;;;;;;;;5010231;28;20245;-70
2023/07/23 12:08:48;;;;;;;1.48;1.30;;;;;;;;;;5006463;28;20196;-70
2023/07/23 12:11:15;;;;;;;2.13;1.50;;;;;;;;;;5022640;28;20210;-68
2023/07/23 12:13:45;;;;;;;1.40;1.30;;;;;;;;;;5003786;28;20254;-71
2023/07/23 12:16:31;;;;;;;2.28;1.20;;;;;;;;;;4999445;28;20191;-69
2023/07/23 12:19:07;;;;;;;1.30;1.20;;;;;;;;;;4999936;28;20199;-69
2023/07/23 12:21:38;;;;;;;2.63;1.40;;;;;;;;;;5000755;28;20210;-72
2023/07/23 12:24:13;;;;;;;2.53;1.40;;;;;;;;;;4982661;28;20188;-71
2023/07/23 12:26:39;;;;;;;2.38;1.73;;;;;;;;;;4318797;28;10000713;-69
2023/07/23 12:29:05;;;;;;;1.90;1.70;;;;;;;;;;5009004;28;20280;-69
2023/07/23 12:31:30;;;;;;;1.83;1.52;;;;;;;;;;4999510;28;20569;-71
2023/07/23 12:33:56;;;;;;;3.45;1.95;;;;;;;;;;4999905;28;20215;-73
2023/07/23 12:36:21;;;;;;;12.20;6.72;;;;;;;;;;4995890;28;20197;-72
2023/07/23 12:38:46;;;;;;;8.07;4.85;;;;;;;;;;5008973;28;20195;-71
2023/07/23 12:41:12;;;;;;;3.92;3.10;;;;;;;;;;5008430;28;20210;-73
2023/07/23 12:43:38;;;;;;;6.47;3.47;;;;;;;;;;5006538;28;20187;-70
2023/07/23 12:46:04;;;;;;;3.83;2.97;;;;;;;;;;5008385;28;20202;-74
2023/07/23 12:48:30;;;;;;;3.28;2.97;;;;;;;;;;5007814;28;20198;-72
2023/07/23 12:50:55;;;;;;;3.85;3.42;;;;;;;;;;5000860;28;20678;-69
2023/07/23 12:53:20;;;;;;;3.30;3.00;;;;;;;;;;5000583;28;20231;-71
2023/07/23 12:55:46;;;;;;;3.72;3.42;;;;;;;;;;4980591;28;20298;-70
2023/07/23 12:58:11;;;;;;;4.80;3.45;;;;;;;;;;5004995;28;20725;-73
2023/07/23 13:00:36;;;;;;;4.03;3.28;;;;;;;;;;5010320;28;20280;-70
2023/07/23 13:03:02;;;;;;;3.30;2.97;;;;;;;;;;5004328;28;20235;-71
2023/07/23 13:05:27;;;;;;;4.30;3.90;;;;;;;;;;5010700;28;20182;-72
2023/07/23 13:07:53;;;;;;;4.10;3.70;;;;;;;;;;5004644;28;20289;-70
2023/07/23 13:10:18;;;;;;;3.78;3.47;;;;;;;;;;5005220;28;20304;-72
2023/07/23 13:12:44;;;;;;;3.92;3.47;;;;;;;;;;5002076;28;20191;-69
2023/07/23 13:15:09;;;;;;;4.78;3.92;;;;;;;;;;4997578;28;20215;-74
2023/07/23 13:17:35;;;;;;;4.22;2.97;;;;;;;;;;4977934;28;20309;-69
2023/07/23 13:20:00;;;;;;;4.43;3.65;;;;;;;;;;5009221;28;20253;-72
2023/07/23 13:22:25;;;;;;;3.60;3.20;;;;;;;;;;5009654;28;20199;-70
2023/07/23 13:24:51;;;;;;;5.03;3.38;;;;;;;;;;4985927;28;20280;-69
2023/07/23 13:27:16;;;;;;;5.50;3.38;;;;;;;;;;4995327;28;20282;-70
2023/07/23 13:29:42;;;;;;;4.38;3.58;;;;;;;;;;4995138;28;20199;-73
2023/07/23 13:32:07;;;;;;;4.60;3.30;;;;;;;;;;5004646;28;20197;-73
2023/07/23 13:34:33;;;;;;;4.50;3.75;;;;;;;;;;5007744;28;20225;-70
2023/07/23 13:36:58;;;;;;;4.50;4.10;;;;;;;;;;5009389;28;20274;-70
2023/07/23 13:39:23;;;;;;;6.10;4.25;;;;;;;;;;5006295;28;20273;-69
2023/07/23 13:41:49;;;;;;;5.53;4.88;;;;;;;;;;5008557;28;20201;-70
2023/07/23 13:44:14;;;;;;;4.82;4.43;;;;;;;;;;5009143;28;20257;-70
2023/07/23 13:46:39;;;;;;;7.53;4.70;;;;;;;;;;5007401;28;20540;-73
2023/07/23 13:49:05;;;;;;;5.78;4.28;;;;;;;;;;4991761;28;20230;-73
2023/07/23 13:51:30;;;;;;;6.57;4.57;;;;;;;;;;4985830;28;20209;-70
2023/07/23 13:53:55;;;;;;;4.47;4.07;;;;;;;;;;5008161;28;20749;-73
2023/07/23 13:56:21;;;;;;;4.63;4.13;;;;;;;;;;4999962;28;20294;-69
2023/07/23 13:58:46;;;;;;;3.97;3.58;;;;;;;;;;5006571;28;20594;-72
2023/07/23 14:01:12;;;;;;;5.85;4.18;;;;;;;;;;5008484;28;20195;-73
2023/07/23 14:03:38;;;;;;;4.47;4.05;;;;;;;;;;4985246;28;20190;-69
2023/07/23 14:06:04;;;;;;;6.00;4.05;;;;;;;;;;5005013;28;20199;-71
2023/07/23 14:08:29;;;;;;;5.18;4.18;;;;;;;;;;5007824;28;20656;-71
2023/07/23 14:10:54;;;;;;;4.78;4.32;;;;;;;;;;4999648;28;20191;-70
2023/07/23 14:13:20;;;;;;;4.63;4.20;;;;;;;;;;4995391;28;20234;-69
2023/07/23 14:15:45;;;;;;;5.43;3.90;;;;;;;;;;5000727;28;20199;-73
2023/07/23 14:18:11;;;;;;;5.22;4.47;;;;;;;;;;4996923;28;20709;-70
2023/07/23 14:20:36;;;;;;;5.90;4.40;;;;;;;;;;5007717;28;20538;-71
2023/07/23 14:23:01;;;;;;;4.72;4.22;;;;;;;;;;5007770;28;20183;-70
2023/07/23 14:25:27;;;;;;;5.07;4.13;;;;;;;;;;5000609;28;20557;-69
2023/07/23 14:27:52;;;;;;;5.80;4.63;;;;;;;;;;4996807;28;20245;-72
2023/07/23 14:30:17;;;;;;;6.43;4.45;;;;;;;;;;5006946;28;20549;-70
2023/07/23 14:32:43;;;;;;;6.15;3.88;;;;;;;;;;4998952;28;20198;-69